My Meet Scores
Bridget Anderson, Naperville Gymnastics Club - MyMeetScores.com
Top100 | Top Teams | Upcoming Meets | Completed Meets | Latest | Add Scores | Help| Support | Bookmark and Share

Bridget Anderson, Naperville Gymnastics Club
Personal Bests
LevelVault BarsBeamFloorAA
69.1508.900 9.1259.37535.900
XG9.3759.225 9.5259.32536.950
XS9.6759.300 9.4509.12536.850
Meet Scores
Date Meet Team Session Level Division Vault Bars Beam Floor AA
2020-03-06 2020 Flip'r Invitational Naperville Gymnastics Club 2 6 SR 12 & up 8.925 11 8.900 6 7.850 13 9.375 10T 35.050 12
2020-02-21 Kinetic Classic Naperville Gymnastics Club 01 6 Older 9.150 12 8.675 32 9.050 31T 9.025 42T 35.900 25T
2020-01-31 Buckeye Classic Naperville Gymnastics Club US2 6 E 9.000 11 8.625 5 9.125 4 9.125 7 35.875 4
2020-01-17 2020 Bravo Classic Naperville Gymnastics Club 11A 6 Sr 8.950 7T 8.100 14T 9.100 12 8.550 17 34.700 14
2020-01-10 Leenda's Island Adventure Naperville Gymnastics Club GG7 6 13 & Over 9.150 1 8.800 6T 8.825 6T 9.100 2T 35.875 3
2019-12-07 Home for the Holidays 2019 Naperville Gymnastics Club 5 XG Older 9.175 1T 9.050 7 9.350 2 9.000 8 36.575 5
2019-05-03 2019 Region 5 Xcel Championships Naperville Gymnastics Club 05O XG JR E 9.200 1T 9.225 26T 8.825 34 9.100 33T 36.350 23T
2019-04-05 2019 Illinois XG, XP, XD State Championships Naperville Gymnastics Club 4 XG Jr F 9.375 3 9.125 14T 9.125 14 9.325 14T 36.950 6
2019-03-08 Lucky Invite Naperville Gymnastics Club B03 XG Jr B 9.150 4 9.100 7T 9.525 4 8.700 17T 36.475 4
2019-03-01 NGCD Academy's 2019 Flip'r Invitational Naperville Gymnastics Club 1 XG All 9.200 2 9.050 7T 9.200 3 9.075 1 36.525 2
2019-02-23 Kinetic Classic 2019 Naperville Gymnastics Club 1 XG Older 9.350 2 9.050 11T 9.175 10 9.000 12 36.575 8
2019-02-01 Wisconsin Dells Gymnastics Vacation Classic Naperville Gymnastics Club R4 XG Sr A 9.100 3T 8.750 6 9.000 5 9.000 4 35.850 3
2018-12-14 2018 Aspire Classic Naperville Gymnastics Club 11A XG Middle 9.150 1 9.100 9 9.250 5 8.875 15T 36.375 4
2018-04-26 Xcel Region 5 Championships Naperville Gymnastics Club 9B XS Jr G 8.900 25 9.050 22 9.450 2 9.100 27 36.500 21
2018-04-06 XCEL State Championships Naperville Gymnastics Club 4A XS Jr E 9.275 9 9.050 27T 9.350 12T 9.125 23T 36.800 19
2018-03-09 Lucky Invitational Naperville Gymnastics Club B10 XS Jr B 8.750 11 9.300 12 9.150 10T 8.675 14 35.875 11
2018-03-02 2018 Flip'r Invitational Naperville Gymnastics Club 1 XS Jr 9.100 4 9.300 8 9.100 8 9.125 9 36.625 5
2018-01-19 2018 Bravo Classic Naperville Gymnastics Club 10A XS Sr 8.850 14 9.000 16T 9.300 6 9.050 9 36.200 12
2017-12-15 2017 Aspire Classic Naperville Gymnastics Club 11B XS Sr A 9.675 1 8.750 16 9.350 2 9.075 7 36.850 7T
2017-11-17 SCGA Classic Naperville Gymnastics Club 4 XS JrB 8.900 5 8.825 10 9.125 4 8.625 8 35.475 9
Get your scores on
a t-shirt, pin, or hoodie

www.lazysuits.com